createdAt,value
2018-06-05T00:00:54.175Z,16.47
2018-06-05T00:03:22.371Z,13.57
2018-06-05T00:05:50.530Z,13.67
2018-06-05T00:08:18.695Z,11.73
2018-06-05T00:10:46.884Z,11.17
2018-06-05T00:13:15.076Z,10.00
2018-06-05T00:15:43.380Z,12.13
2018-06-05T00:18:11.632Z,16.37
2018-06-05T00:20:39.812Z,10.63
2018-06-05T00:23:07.978Z,12.37
2018-06-05T00:25:36.165Z,12.40
2018-06-05T00:28:04.490Z,13.13
2018-06-05T00:30:32.667Z,15.73
2018-06-05T00:33:00.834Z,15.13
2018-06-05T00:35:29.001Z,14.10
2018-06-05T00:37:57.452Z,13.53
2018-06-05T00:40:25.777Z,12.00
2018-06-05T00:42:53.964Z,11.33
2018-06-05T00:45:22.136Z,12.77
2018-06-05T00:47:50.304Z,17.67
2018-06-05T00:50:18.624Z,15.10
2018-06-05T00:52:46.920Z,13.33
2018-06-05T00:55:15.246Z,16.93
2018-06-05T00:57:43.588Z,15.20
2018-06-05T01:00:11.848Z,14.23
2018-06-05T01:02:40.070Z,17.93
2018-06-05T01:05:08.330Z,20.20
2018-06-05T01:07:36.508Z,16.67
2018-06-05T01:10:05.040Z,20.07
2018-06-05T01:12:33.400Z,16.53
2018-06-05T01:15:01.592Z,13.23
2018-06-05T01:17:29.779Z,16.97
2018-06-05T01:19:57.992Z,20.97
2018-06-05T01:22:26.313Z,20.20
2018-06-05T01:24:54.509Z,23.80
2018-06-05T01:27:22.683Z,17.93
2018-06-05T01:29:50.848Z,28.37
2018-06-05T01:32:19.032Z,26.27
2018-06-05T01:34:47.201Z,21.43
2018-06-05T01:37:15.427Z,25.47
2018-06-05T01:39:43.680Z,22.23
2018-06-05T01:42:11.912Z,18.20
2018-06-05T01:44:40.125Z,17.27
2018-06-05T01:47:08.308Z,26.50
2018-06-05T01:49:40.615Z,18.47
2018-06-05T01:52:09.357Z,19.53
2018-06-05T01:54:37.541Z,17.43
2018-06-05T01:57:05.791Z,23.87
2018-06-05T01:59:33.947Z,17.30
2018-06-05T02:02:02.493Z,22.97
2018-06-05T02:04:30.661Z,23.40
2018-06-05T02:06:58.827Z,30.57
2018-06-05T02:09:27.102Z,30.33
2018-06-05T02:11:55.272Z,23.40
2018-06-05T02:14:23.448Z,25.37
2018-06-05T02:16:51.623Z,43.80
2018-06-05T02:19:19.796Z,30.20
2018-06-05T02:21:51.037Z,33.00
2018-06-05T02:24:19.855Z,32.30
2018-06-05T02:26:48.069Z,30.63
2018-06-05T02:29:16.230Z,27.03
2018-06-05T02:31:45.797Z,20.67
2018-06-05T02:34:13.970Z,22.90
2018-06-05T02:36:42.241Z,24.27
2018-06-05T02:39:10.536Z,27.30
2018-06-05T02:41:38.721Z,30.07
2018-06-05T02:44:06.892Z,27.27
2018-06-05T02:46:35.056Z,26.07
2018-06-05T02:49:03.228Z,43.33
2018-06-05T02:51:31.404Z,28.17
2018-06-05T02:53:59.586Z,20.70
2018-06-05T02:56:27.892Z,29.37
2018-06-05T02:58:56.273Z,27.07
2018-06-05T03:01:24.427Z,30.67
2018-06-05T03:03:52.796Z,39.67
2018-06-05T03:06:22.880Z,41.50
2018-06-05T03:08:51.055Z,42.33
2018-06-05T03:11:22.116Z,43.83
2018-06-05T03:13:50.456Z,46.43
2018-06-05T03:16:18.634Z,47.30
2018-06-05T03:18:46.877Z,46.03
2018-06-05T03:21:15.132Z,38.60
2018-06-05T03:23:43.336Z,39.17
2018-06-05T03:26:11.791Z,42.13
2018-06-05T03:28:40.471Z,50.13
2018-06-05T03:31:08.623Z,42.87
2018-06-05T03:33:36.839Z,42.87
2018-06-05T03:36:05.122Z,47.07
2018-06-05T03:38:33.517Z,61.40
2018-06-05T03:41:01.705Z,50.30
2018-06-05T03:43:29.976Z,49.70
2018-06-05T03:45:58.128Z,62.70
2018-06-05T03:48:26.416Z,53.57
2018-06-05T03:50:55.902Z,52.23
2018-06-05T03:53:24.080Z,58.70
2018-06-05T03:55:52.281Z,56.07
2018-06-05T03:58:20.468Z,56.23
2018-06-05T04:00:48.652Z,42.10
2018-06-05T04:03:16.828Z,44.77
2018-06-05T04:05:45.107Z,38.63
2018-06-05T04:08:13.351Z,49.47
2018-06-05T04:10:41.533Z,51.50
2018-06-05T04:13:10.973Z,53.83
2018-06-05T04:15:39.962Z,53.20
2018-06-05T04:18:08.460Z,51.80
2018-06-05T04:20:36.628Z,62.47
2018-06-05T04:23:04.807Z,58.30
2018-06-05T04:25:32.984Z,58.97
2018-06-05T04:28:01.334Z,61.70
2018-06-05T04:30:29.671Z,55.53
2018-06-05T04:32:57.944Z,67.63
2018-06-05T04:35:26.119Z,52.40
2018-06-05T04:37:54.275Z,52.83
2018-06-05T04:40:22.456Z,49.67
2018-06-05T04:42:50.647Z,56.03
2018-06-05T04:45:18.989Z,66.97
2018-06-05T04:47:47.237Z,51.80
2018-06-05T04:50:15.617Z,50.67
2018-06-05T04:52:43.828Z,66.57
2018-06-05T04:55:12.454Z,64.23
2018-06-05T04:57:41.019Z,54.03
2018-06-05T05:00:09.288Z,53.87
2018-06-05T05:02:37.546Z,68.10
2018-06-05T05:05:06.127Z,55.77
2018-06-05T05:07:34.409Z,54.43
2018-06-05T05:10:02.696Z,51.60
2018-06-05T05:12:31.039Z,50.90
2018-06-05T05:14:59.313Z,55.20
2018-06-05T05:17:27.517Z,46.87
2018-06-05T05:19:55.805Z,59.80
2018-06-05T05:22:24.083Z,60.90
2018-06-05T05:24:54.441Z,61.77
2018-06-05T05:27:22.672Z,55.30
2018-06-05T05:29:50.965Z,70.87
2018-06-05T05:32:19.256Z,65.87
2018-06-05T05:34:47.450Z,66.00
2018-06-05T05:37:15.617Z,61.10
2018-06-05T05:39:43.811Z,74.97
2018-06-05T05:42:11.983Z,61.03
2018-06-05T05:44:40.185Z,82.90
2018-06-05T05:47:08.552Z,50.33
2018-06-05T05:49:36.752Z,56.17
2018-06-05T05:52:05.025Z,41.87
2018-06-05T05:54:33.292Z,53.27
2018-06-05T05:57:01.456Z,58.00
2018-06-05T05:59:29.671Z,59.83
2018-06-05T06:01:57.847Z,41.73
2018-06-05T06:04:26.032Z,36.47
2018-06-05T06:06:54.207Z,38.17
2018-06-05T06:09:22.384Z,43.70
2018-06-05T06:11:50.657Z,54.63
2018-06-05T06:14:18.853Z,61.60
2018-06-05T06:16:47.208Z,51.83
2018-06-05T06:19:15.488Z,52.90
2018-06-05T06:21:43.984Z,53.43
2018-06-05T06:24:12.324Z,54.90
2018-06-05T06:26:40.566Z,44.03
2018-06-05T06:29:08.928Z,48.37
2018-06-05T06:31:37.189Z,40.77
2018-06-05T06:34:05.418Z,36.30
2018-06-05T06:36:34.320Z,39.10
2018-06-05T06:39:02.516Z,46.57
2018-06-05T06:41:30.780Z,38.50
2018-06-05T06:43:59.240Z,37.43
2018-06-05T06:46:27.428Z,43.53
2018-06-05T06:48:55.747Z,34.83
2018-06-05T06:51:23.930Z,30.67
2018-06-05T06:53:52.452Z,39.73
2018-06-05T06:56:20.689Z,50.03
2018-06-05T06:58:48.860Z,49.77
2018-06-05T07:01:17.041Z,33.97
2018-06-05T07:03:45.266Z,35.10
2018-06-05T07:06:13.649Z,45.37
2018-06-05T07:08:41.817Z,38.87
2018-06-05T07:11:10.002Z,41.17
2018-06-05T07:13:38.168Z,46.40
2018-06-05T07:16:06.405Z,44.80
2018-06-05T07:18:34.622Z,51.43
2018-06-05T07:21:03.347Z,44.77
2018-06-05T07:23:31.701Z,51.67
2018-06-05T07:26:00.006Z,51.10
2018-06-05T07:28:28.191Z,57.20
2018-06-05T07:30:56.396Z,44.30
2018-06-05T07:33:24.680Z,49.27
2018-06-05T07:35:52.870Z,41.97
2018-06-05T07:38:21.031Z,38.47
2018-06-05T07:40:49.220Z,44.97
2018-06-05T07:43:17.484Z,43.17
2018-06-05T07:45:45.802Z,40.73
2018-06-05T07:48:14.029Z,44.83
2018-06-05T07:50:42.295Z,36.67
2018-06-05T07:53:10.472Z,47.77
2018-06-05T07:55:38.655Z,40.23
2018-06-05T07:58:06.870Z,34.60
2018-06-05T08:00:35.056Z,45.27
2018-06-05T08:03:03.241Z,38.93
2018-06-05T08:05:31.414Z,32.00
2018-06-05T08:07:59.688Z,37.57
2018-06-05T08:10:28.112Z,32.10
2018-06-05T08:12:56.505Z,38.97
2018-06-05T08:15:24.706Z,35.90
2018-06-05T08:17:52.996Z,47.37
2018-06-05T08:20:21.253Z,50.97
2018-06-05T08:22:53.961Z,43.40
2018-06-05T08:25:22.314Z,45.53
2018-06-05T08:27:50.517Z,45.90
2018-06-05T08:30:18.712Z,50.97
2018-06-05T08:32:47.704Z,39.30
2018-06-05T08:35:15.920Z,37.60
2018-06-05T08:37:44.182Z,30.07
2018-06-05T08:40:12.376Z,32.90
2018-06-05T08:42:41.125Z,30.93
2018-06-05T08:45:09.333Z,48.53
2018-06-05T08:47:37.601Z,50.13
2018-06-05T08:50:05.800Z,53.63
2018-06-05T08:52:33.988Z,47.53
2018-06-05T08:55:02.288Z,43.97
2018-06-05T08:57:30.477Z,43.27
2018-06-05T08:59:58.896Z,40.63
2018-06-05T09:02:27.121Z,48.40
2018-06-05T09:04:55.302Z,38.30
2018-06-05T09:07:23.543Z,34.13
2018-06-05T09:09:51.810Z,36.43
2018-06-05T09:12:20.105Z,44.33
2018-06-05T09:14:48.270Z,52.60
2018-06-05T09:17:16.542Z,47.57
2018-06-05T09:19:44.734Z,53.97
2018-06-05T09:22:13.214Z,52.53
2018-06-05T09:24:41.576Z,48.83
2018-06-05T09:27:09.813Z,49.13
2018-06-05T09:29:38.023Z,44.43
2018-06-05T09:32:06.313Z,41.70
2018-06-05T09:34:34.712Z,33.30
2018-06-05T09:37:03.029Z,33.27
2018-06-05T09:39:31.358Z,31.57
2018-06-05T09:41:59.685Z,43.00
2018-06-05T09:44:27.941Z,41.10
2018-06-05T09:46:56.617Z,45.33
2018-06-05T09:49:24.959Z,48.70
2018-06-05T09:51:53.284Z,47.73
2018-06-05T09:54:21.590Z,49.93
2018-06-05T09:56:50.080Z,44.50
2018-06-05T09:59:18.588Z,43.33
2018-06-05T10:01:46.856Z,38.83
2018-06-05T10:04:15.317Z,43.77
2018-06-05T10:06:43.715Z,36.60
2018-06-05T10:09:11.912Z,36.00
2018-06-05T10:11:40.077Z,33.70
2018-06-05T10:14:08.347Z,37.10
2018-06-05T10:16:36.505Z,50.00
2018-06-05T10:19:04.785Z,42.63
2018-06-05T10:21:32.975Z,44.90
2018-06-05T10:24:01.243Z,37.83
2018-06-05T10:26:29.482Z,40.87
2018-06-05T10:28:57.792Z,48.90
2018-06-05T10:31:25.978Z,41.83
2018-06-05T10:33:54.164Z,48.10
2018-06-05T10:36:22.436Z,50.80
2018-06-05T10:38:50.620Z,45.73
2018-06-05T10:41:18.812Z,38.73
2018-06-05T10:43:47.015Z,52.13
2018-06-05T10:46:15.250Z,40.53
2018-06-05T10:48:43.444Z,36.73
2018-06-05T10:51:11.612Z,43.63
2018-06-05T10:53:40.085Z,39.77
2018-06-05T10:56:08.266Z,47.90
2018-06-05T10:58:36.606Z,37.90
2018-06-05T11:01:04.831Z,47.70
2018-06-05T11:03:33.093Z,49.63
2018-06-05T11:06:01.305Z,50.40
2018-06-05T11:08:29.781Z,50.67
2018-06-05T11:10:57.990Z,44.47
2018-06-05T11:13:26.244Z,42.77
2018-06-05T11:15:54.415Z,42.70
2018-06-05T11:18:22.674Z,42.50
2018-06-05T11:20:51.153Z,38.93
2018-06-05T11:23:19.409Z,34.53
2018-06-05T11:25:47.656Z,43.57
2018-06-05T11:28:15.887Z,41.60
2018-06-05T11:30:44.165Z,46.70
2018-06-05T11:33:12.336Z,44.50
2018-06-05T11:35:41.260Z,43.17
2018-06-05T11:38:09.527Z,52.13
2018-06-05T11:40:37.917Z,46.57
2018-06-05T11:43:06.450Z,50.60
2018-06-05T11:45:34.741Z,50.37
2018-06-05T11:48:02.996Z,49.70
2018-06-05T11:50:31.272Z,50.33
2018-06-05T11:52:59.492Z,51.23
2018-06-05T11:55:27.779Z,53.10
2018-06-05T11:57:55.966Z,46.70
2018-06-05T12:00:24.376Z,54.97
2018-06-05T12:02:52.637Z,53.70
2018-06-05T12:05:21.176Z,51.63
2018-06-05T12:07:49.369Z,58.43
2018-06-05T12:10:17.668Z,57.13
2018-06-05T12:12:45.935Z,50.73
2018-06-05T12:15:14.210Z,50.07
2018-06-05T12:17:42.495Z,52.60
2018-06-05T12:20:10.787Z,51.97
2018-06-05T12:22:38.946Z,47.67
2018-06-05T12:25:07.237Z,44.90
2018-06-05T12:27:35.512Z,47.20
2018-06-05T12:30:03.830Z,40.67
2018-06-05T12:32:32.040Z,42.23
2018-06-05T12:35:00.435Z,49.23
2018-06-05T12:37:28.701Z,48.10
2018-06-05T12:39:56.988Z,53.23
2018-06-05T12:42:25.309Z,50.53
2018-06-05T12:44:53.580Z,57.73
2018-06-05T12:47:21.901Z,56.13
2018-06-05T12:49:50.301Z,54.97
2018-06-05T12:52:18.553Z,49.40
2018-06-05T12:54:46.895Z,53.23
2018-06-05T12:57:15.219Z,48.57
2018-06-05T12:59:44.340Z,53.47
2018-06-05T13:02:12.532Z,62.40
2018-06-05T13:04:40.755Z,53.00
2018-06-05T13:07:09.052Z,52.53
2018-06-05T13:09:37.324Z,53.73
2018-06-05T13:12:05.703Z,57.27
2018-06-05T13:14:33.833Z,54.77
2018-06-05T13:17:02.316Z,57.47
2018-06-05T13:19:31.331Z,49.60
2018-06-05T13:21:59.584Z,45.10
2018-06-05T13:24:27.805Z,52.47
2018-06-05T13:27:05.273Z,46.10
2018-06-05T13:29:34.033Z,51.60
2018-06-05T13:32:02.884Z,47.77
2018-06-05T13:34:31.473Z,53.37
2018-06-05T13:36:59.862Z,52.70
2018-06-05T13:39:28.042Z,55.03
2018-06-05T13:41:56.229Z,49.07
2018-06-05T13:44:24.940Z,45.30
2018-06-05T13:46:53.204Z,38.10
2018-06-05T13:49:21.470Z,47.90
2018-06-05T13:51:49.703Z,56.10
2018-06-05T13:54:17.876Z,52.30
2018-06-05T13:56:46.065Z,54.80
2018-06-05T13:59:14.369Z,51.50
2018-06-05T14:01:42.750Z,45.33
2018-06-05T14:04:11.025Z,51.90
2018-06-05T14:06:39.315Z,48.90
2018-06-05T14:09:08.308Z,48.97
2018-06-05T14:11:36.424Z,52.00
2018-06-05T14:14:04.936Z,50.30
2018-06-05T14:16:33.181Z,48.80
2018-06-05T14:19:01.362Z,42.47
2018-06-05T14:21:29.545Z,49.47
2018-06-05T14:23:57.765Z,47.37
2018-06-05T14:26:25.939Z,47.23
2018-06-05T14:28:54.235Z,37.13
2018-06-05T14:31:22.455Z,45.20
2018-06-05T14:33:51.045Z,44.47
2018-06-05T14:36:19.236Z,40.40
2018-06-05T14:38:47.420Z,47.23
2018-06-05T14:41:16.101Z,39.93
2018-06-05T14:43:44.297Z,50.50
2018-06-05T14:46:12.589Z,53.17
2018-06-05T14:48:41.814Z,45.33
2018-06-05T14:51:10.005Z,39.60
2018-06-05T14:53:38.819Z,46.40
2018-06-05T14:56:07.008Z,50.73
2018-06-05T14:58:35.326Z,51.17
2018-06-05T15:01:03.581Z,49.43
2018-06-05T15:03:31.835Z,53.17
2018-06-05T15:06:00.106Z,53.00
2018-06-05T15:08:28.404Z,50.10
2018-06-05T15:10:56.665Z,49.97
2018-06-05T15:13:25.045Z,51.73
2018-06-05T15:15:53.349Z,51.73
2018-06-05T15:18:21.605Z,54.83
2018-06-05T15:20:49.873Z,54.20
2018-06-05T15:23:18.187Z,53.63
2018-06-05T15:25:47.179Z,57.10
2018-06-05T15:28:15.420Z,58.13
2018-06-05T15:30:43.684Z,57.27
2018-06-05T15:33:11.993Z,59.20
2018-06-05T15:35:40.341Z,55.47
2018-06-05T15:38:09.430Z,57.13
2018-06-05T15:40:37.633Z,59.40
2018-06-05T15:43:05.884Z,57.23
2018-06-05T15:45:34.174Z,56.73
2018-06-05T15:48:02.589Z,51.77
2018-06-05T15:50:30.831Z,50.43
2018-06-05T15:52:59.112Z,49.00
2018-06-05T15:55:27.509Z,50.50
2018-06-05T15:57:55.888Z,48.37
2018-06-05T16:00:24.200Z,46.13
2018-06-05T16:02:52.670Z,55.20
2018-06-05T16:05:20.908Z,53.43
2018-06-05T16:07:49.193Z,57.63
2018-06-05T16:10:17.494Z,53.77
2018-06-05T16:12:45.882Z,52.57
2018-06-05T16:15:14.674Z,48.70
2018-06-05T16:17:42.891Z,45.53
2018-06-05T16:20:11.084Z,55.63
2018-06-05T16:22:39.330Z,55.53
2018-06-05T16:25:07.536Z,52.97
2018-06-05T16:27:35.980Z,53.27
2018-06-05T16:30:04.734Z,54.87
2018-06-05T16:32:32.920Z,57.40
2018-06-05T16:35:01.141Z,56.67
2018-06-05T16:37:29.318Z,56.90
2018-06-05T16:39:57.518Z,59.10
2018-06-05T16:42:25.704Z,53.30
2018-06-05T16:44:53.892Z,54.57
2018-06-05T16:47:22.128Z,50.70
2018-06-05T16:49:50.479Z,52.13
2018-06-05T16:52:18.665Z,51.77
2018-06-05T16:54:46.995Z,55.50
2018-06-05T16:57:15.188Z,54.10
2018-06-05T16:59:43.503Z,47.03
2018-06-05T17:02:11.705Z,56.07
2018-06-05T17:04:39.944Z,49.83
2018-06-05T17:07:08.194Z,45.90
2018-06-05T17:09:36.402Z,56.70
2018-06-05T17:12:04.657Z,55.07
2018-06-05T17:14:32.860Z,52.00
2018-06-05T17:17:01.033Z,52.30
2018-06-05T17:19:30.879Z,49.30
2018-06-05T17:21:59.186Z,55.97
2018-06-05T17:24:27.387Z,49.97
2018-06-05T17:26:55.576Z,48.53
2018-06-05T17:29:23.765Z,44.23
2018-06-05T17:31:51.953Z,38.25
2018-06-05T17:34:20.182Z,37.60
2018-06-05T17:36:48.368Z,36.83
2018-06-05T17:39:16.768Z,32.97
2018-06-05T17:41:46.128Z,42.30
2018-06-05T17:44:14.394Z,30.17
2018-06-05T17:46:42.574Z,39.17
2018-06-05T17:49:10.879Z,35.30
2018-06-05T17:51:39.168Z,38.07
2018-06-05T17:54:07.540Z,40.07
2018-06-05T17:56:36.163Z,33.17
2018-06-05T17:59:04.382Z,36.13
2018-06-05T18:01:32.569Z,36.57
2018-06-05T18:04:01.051Z,31.63
2018-06-05T18:06:29.268Z,30.23
2018-06-05T18:08:57.464Z,27.47
2018-06-05T18:11:25.634Z,36.53
2018-06-05T18:13:53.842Z,34.40
2018-06-05T18:16:22.043Z,35.63
2018-06-05T18:18:50.216Z,39.27
2018-06-05T18:21:18.406Z,39.07
2018-06-05T18:23:46.688Z,36.97
2018-06-05T18:26:14.902Z,37.57
2018-06-05T18:28:43.231Z,30.50
2018-06-05T18:31:11.457Z,27.20
2018-06-05T18:33:39.712Z,24.70
2018-06-05T18:36:07.942Z,30.87
2018-06-05T18:38:36.425Z,27.53
2018-06-05T18:41:04.703Z,30.10
2018-06-05T18:43:32.906Z,27.37
2018-06-05T18:46:01.248Z,21.27
2018-06-05T18:48:29.444Z,21.70
2018-06-05T18:50:57.664Z,18.47
2018-06-05T18:53:25.874Z,15.10
2018-06-05T18:55:54.156Z,17.43
2018-06-05T18:58:22.341Z,21.17
2018-06-05T19:00:50.538Z,23.77
2018-06-05T19:03:18.804Z,22.07
2018-06-05T19:05:46.997Z,16.67
2018-06-05T19:08:15.174Z,17.50
2018-06-05T19:10:43.401Z,18.83
2018-06-05T19:13:11.620Z,19.87
2018-06-05T19:15:39.840Z,17.13
2018-06-05T19:18:08.026Z,16.43
2018-06-05T19:20:36.308Z,16.87
2018-06-05T19:23:04.573Z,13.03
2018-06-05T19:25:33.638Z,14.70
2018-06-05T19:28:04.857Z,13.87
2018-06-05T19:30:36.781Z,13.77
2018-06-05T19:33:13.119Z,11.47
2018-06-05T19:35:41.380Z,13.00
2018-06-05T19:38:09.557Z,16.93
2018-06-05T19:40:37.752Z,14.77
2018-06-05T19:43:05.963Z,18.43
2018-06-05T19:45:34.188Z,21.10
2018-06-05T19:48:02.408Z,20.63
2018-06-05T19:50:30.669Z,19.60
2018-06-05T19:52:59.009Z,19.60
2018-06-05T19:55:27.230Z,16.63
2018-06-05T19:58:00.643Z,15.57
2018-06-05T20:00:28.996Z,14.00
2018-06-05T20:02:57.185Z,16.67
2018-06-05T20:05:25.561Z,16.97
2018-06-05T20:07:53.705Z,15.50
2018-06-05T20:10:21.905Z,14.10
2018-06-05T20:12:50.096Z,13.40
2018-06-05T20:15:18.283Z,11.30
2018-06-05T20:17:46.528Z,10.37
2018-06-05T20:20:14.698Z,12.70
2018-06-05T20:22:42.906Z,11.90
2018-06-05T20:25:11.102Z,11.27
2018-06-05T20:27:39.337Z,11.73
2018-06-05T20:30:07.528Z,11.03
2018-06-05T20:32:35.789Z,10.87
2018-06-05T20:35:04.005Z,9.23
2018-06-05T20:37:32.201Z,8.83
2018-06-05T20:40:00.448Z,8.77
2018-06-05T20:42:28.745Z,10.93
2018-06-05T20:44:57.187Z,10.03
2018-06-05T20:47:25.433Z,7.77
2018-06-05T20:49:53.626Z,7.03
2018-06-05T20:52:21.868Z,7.57
2018-06-05T20:54:50.352Z,7.97
2018-06-05T20:57:18.497Z,6.20
2018-06-05T20:59:46.883Z,8.60
2018-06-05T21:02:15.159Z,7.00
2018-06-05T21:04:43.357Z,7.67
2018-06-05T21:07:11.656Z,8.57
2018-06-05T21:09:39.909Z,7.60
2018-06-05T21:12:08.130Z,8.30
2018-06-05T21:14:36.378Z,8.20
2018-06-05T21:17:04.657Z,8.80
2018-06-05T21:19:32.831Z,6.77
2018-06-05T21:22:01.213Z,7.83
2018-06-05T21:24:29.462Z,9.70
2018-06-05T21:26:57.756Z,7.77
2018-06-05T21:29:25.960Z,7.77
2018-06-05T21:31:54.239Z,7.63
2018-06-05T21:34:22.533Z,6.93
2018-06-05T21:36:50.709Z,6.83
2018-06-05T21:39:19.013Z,6.10
2018-06-05T21:41:47.212Z,6.97
2018-06-05T21:44:15.392Z,7.77
2018-06-05T21:46:43.601Z,6.27
2018-06-05T21:49:11.821Z,8.47
2018-06-05T21:54:05.115Z,7.63
2018-06-05T21:56:33.304Z,6.07
2018-06-05T21:59:01.501Z,7.97
2018-06-05T22:01:29.740Z,9.27
2018-06-05T22:03:57.947Z,7.67
2018-06-05T22:06:26.193Z,7.23
2018-06-05T22:08:54.478Z,9.47
2018-06-05T22:11:22.730Z,10.03
2018-06-05T22:13:51.035Z,7.17
2018-06-05T22:16:19.305Z,9.30
2018-06-05T22:18:47.781Z,12.27
2018-06-05T22:21:15.975Z,9.27
2018-06-05T22:23:44.227Z,7.53
2018-06-05T22:26:12.405Z,8.27
2018-06-05T22:28:40.779Z,8.03
2018-06-05T22:31:09.031Z,6.90
2018-06-05T22:33:37.430Z,7.60
2018-06-05T22:36:05.729Z,9.60
2018-06-05T22:38:33.927Z,8.33
2018-06-05T22:41:02.107Z,9.27
2018-06-05T22:43:31.021Z,7.10
2018-06-05T22:45:59.450Z,7.23
2018-06-05T22:48:27.670Z,7.07
2018-06-05T22:50:55.840Z,7.43
2018-06-05T22:53:24.014Z,7.00
2018-06-05T22:55:52.242Z,7.67
2018-06-05T22:58:20.428Z,7.10
2018-06-05T23:00:48.868Z,6.53
2018-06-05T23:03:17.098Z,5.93
2018-06-05T23:05:45.262Z,5.73
2018-06-05T23:08:13.297Z,5.70
2018-06-05T23:10:41.481Z,5.30
2018-06-05T23:13:09.838Z,5.80
2018-06-05T23:15:38.142Z,7.77
2018-06-05T23:18:06.310Z,6.50
2018-06-05T23:20:34.575Z,5.77
2018-06-05T23:23:02.828Z,6.73
2018-06-05T23:25:31.026Z,8.77
2018-06-05T23:27:59.372Z,7.13
2018-06-05T23:30:27.550Z,8.03
2018-06-05T23:32:56.249Z,7.20
2018-06-05T23:35:24.486Z,7.50
2018-06-05T23:37:52.880Z,8.40
2018-06-05T23:40:21.089Z,11.47
2018-06-05T23:42:49.293Z,12.60
2018-06-05T23:45:17.716Z,9.30
2018-06-05T23:47:45.961Z,9.63
2018-06-05T23:50:14.270Z,7.87
2018-06-05T23:52:42.449Z,7.73
2018-06-05T23:55:10.757Z,9.00
2018-06-05T23:57:38.917Z,6.30
